Skip Navigation Links
NOAA logo - Click to go to the NOAA homepage
NOAA's National Weather Service
Alaska Aviation Weather Unit
  NWS logo - Click to go to the NWS homepage
Left Navbar Graphic     21 AKDT = 05 GMT

   
NOAA is celebrating 200 years of science, service, and stewardship. Visit the NOAA 200th celebration Web site to learn more.
USA.gov is the U.S. Government's official Web portal to all Federal, state and local government Web resources and services.
Facebook
NWS on Facebook

AAWU Home :: Display TAF Add Bookmark
TAF PAGA 262320Z 2700/2724 10005KT P6SM SCT100 BKN200=
METAR PAGA 262357Z AUTO VRB06KT 8SM CLR 11/00 A2959=

METAR PAGA 270057Z AUTO VRB03KT 8SM CLR 11/M01 A2958=

METAR PAGA 270157Z AUTO 02007KT 9SM CLR 11/M01 A2958=

METAR PAGA 270257Z AUTO 02005KT 10SM CLR 11/M01 A2958=

METAR PAGA 270357Z AUTO 36007KT 10SM CLR 11/M01 A2959=

METAR PAGA 270457Z AUTO 36006G15KT 10SM CLR 09/M01 A2960 RMK AO2
 SLP030 T00941011=


NOAA's National Weather Service
Alaska Aviation Weather Unit
6930 Sand Lake Road
Anchorage, AK 99502-1845
Disclaimer
Credits
Glossary
Privacy Policy
About Us
Career Opportunities
Contact AAWU Internet Services Site last modified: April, 17th 2012